createdAt,value
2023-01-17T00:00:04.783Z,28.60
2023-01-17T00:02:32.897Z,25.50
2023-01-17T00:05:18.260Z,24.90
2023-01-17T00:08:03.448Z,28.20
2023-01-17T00:10:30.065Z,23.80
2023-01-17T00:13:02.961Z,27.40
2023-01-17T00:15:31.190Z,24.70
2023-01-17T00:17:57.856Z,23.40
2023-01-17T00:20:49.550Z,26.00
2023-01-17T00:23:38.674Z,28.20
2023-01-17T00:26:16.120Z,28.00
2023-01-17T00:28:42.815Z,26.30
2023-01-17T00:31:12.736Z,27.70
2023-01-17T00:33:39.705Z,30.00
2023-01-17T00:36:06.975Z,23.90
2023-01-17T00:38:34.993Z,27.50
2023-01-17T00:41:09.527Z,24.30
2023-01-17T00:43:54.865Z,24.60
2023-01-17T00:46:40.551Z,23.70
2023-01-17T00:49:26.205Z,30.00
2023-01-17T00:52:11.648Z,26.20
2023-01-17T00:54:57.014Z,23.10
2023-01-17T00:57:42.241Z,25.10
2023-01-17T01:00:27.956Z,23.70
2023-01-17T01:03:14.832Z,25.90
2023-01-17T01:06:00.128Z,25.70
2023-01-17T01:08:46.944Z,24.70
2023-01-17T01:11:34.229Z,23.90
2023-01-17T01:14:20.336Z,25.50
2023-01-17T01:17:05.547Z,30.50
2023-01-17T01:19:50.961Z,21.50
2023-01-17T01:22:36.233Z,22.80
2023-01-17T01:25:21.709Z,18.90
2023-01-17T01:28:06.901Z,22.30
2023-01-17T01:30:52.250Z,23.10
2023-01-17T01:33:19.109Z,23.00
2023-01-17T01:35:47.607Z,23.30
2023-01-17T01:38:15.085Z,19.70
2023-01-17T01:40:43.600Z,22.90
2023-01-17T01:43:12.394Z,22.20
2023-01-17T01:45:39.868Z,21.10
2023-01-17T01:48:22.116Z,24.60
2023-01-17T01:50:48.970Z,21.00
2023-01-17T01:53:15.618Z,27.30
2023-01-17T01:55:42.594Z,21.00
2023-01-17T01:58:13.063Z,23.30
2023-01-17T02:00:40.253Z,24.50
2023-01-17T02:03:12.758Z,22.90
2023-01-17T02:05:41.811Z,26.20
2023-01-17T02:08:11.366Z,24.00
2023-01-17T02:10:39.337Z,24.00
2023-01-17T02:13:06.344Z,23.40
2023-01-17T02:15:38.537Z,22.70
2023-01-17T02:18:30.435Z,22.30
2023-01-17T02:21:09.405Z,25.20
2023-01-17T02:24:13.639Z,23.20
2023-01-17T02:26:51.998Z,21.90
2023-01-17T02:29:31.717Z,22.20
2023-01-17T02:32:15.718Z,24.90
2023-01-17T02:35:14.601Z,21.00
2023-01-17T02:38:14.859Z,26.00
2023-01-17T02:40:49.559Z,23.90
2023-01-17T02:43:19.151Z,22.40
2023-01-17T02:45:50.522Z,22.80
2023-01-17T02:48:20.867Z,22.60
2023-01-17T02:51:18.347Z,23.50
2023-01-17T02:53:59.859Z,22.00
2023-01-17T02:57:04.528Z,26.20
2023-01-17T02:59:42.487Z,23.50
2023-01-17T03:02:50.550Z,19.90
2023-01-17T03:05:39.531Z,19.40
2023-01-17T03:08:08.519Z,24.70
2023-01-17T03:10:37.469Z,25.30
2023-01-17T03:13:06.400Z,21.90
2023-01-17T03:15:35.862Z,24.00
2023-01-17T03:18:06.512Z,23.60
2023-01-17T03:20:36.552Z,22.60
2023-01-17T03:23:05.804Z,21.90
2023-01-17T03:25:34.767Z,28.00
2023-01-17T03:28:04.751Z,26.10
2023-01-17T03:30:34.329Z,22.30
2023-01-17T03:33:03.642Z,21.70
2023-01-17T03:43:15.199Z,19.70
2023-01-17T03:45:41.990Z,25.20
2023-01-17T03:48:09.089Z,23.70
2023-01-17T03:50:35.896Z,20.30
2023-01-17T03:53:02.775Z,21.70
2023-01-17T03:55:29.496Z,24.50
2023-01-17T03:57:56.469Z,23.10
2023-01-17T04:00:23.373Z,24.30
2023-01-17T04:02:50.411Z,22.10
2023-01-17T04:05:17.311Z,19.60
2023-01-17T04:07:44.064Z,19.60
2023-01-17T04:10:11.040Z,28.30
2023-01-17T04:12:38.327Z,23.20
2023-01-17T04:15:05.898Z,22.20
2023-01-17T04:17:32.819Z,23.60
2023-01-17T04:19:59.688Z,23.00
2023-01-17T04:22:26.401Z,24.00
2023-01-17T04:24:53.095Z,27.70
2023-01-17T04:27:19.994Z,22.10
2023-01-17T04:29:46.961Z,21.90
2023-01-17T04:32:14.922Z,24.90
2023-01-17T04:34:42.168Z,24.50
2023-01-17T04:37:08.927Z,24.30
2023-01-17T04:39:35.835Z,22.40
2023-01-17T04:42:03.124Z,31.30
2023-01-17T04:44:29.931Z,29.40
2023-01-17T04:46:56.778Z,26.80
2023-01-17T04:49:23.543Z,31.70
2023-01-17T04:51:50.465Z,27.30
2023-01-17T04:54:17.309Z,26.70
2023-01-17T04:56:45.081Z,25.20
2023-01-17T04:59:12.231Z,25.30
2023-01-17T05:01:39.336Z,30.30
2023-01-17T05:04:06.443Z,28.80
2023-01-17T05:06:33.382Z,30.90
2023-01-17T05:09:00.157Z,26.40
2023-01-17T05:11:27.056Z,23.30
2023-01-17T05:13:53.994Z,22.40
2023-01-17T05:16:20.849Z,25.50
2023-01-17T05:18:50.652Z,28.70
2023-01-17T05:21:17.506Z,26.90
2023-01-17T05:23:44.253Z,22.90
2023-01-17T05:26:11.026Z,27.40
2023-01-17T05:28:37.928Z,26.70
2023-01-17T05:31:04.846Z,28.60
2023-01-17T05:33:32.033Z,29.80
2023-01-17T05:35:59.215Z,30.30
2023-01-17T05:38:26.018Z,31.00
2023-01-17T05:40:52.832Z,32.60
2023-01-17T05:43:20.806Z,29.50
2023-01-17T05:45:50.130Z,28.60
2023-01-17T05:48:17.000Z,27.00
2023-01-17T05:50:43.816Z,26.80
2023-01-17T05:53:12.563Z,24.80
2023-01-17T05:55:39.859Z,26.80
2023-01-17T05:58:07.318Z,30.70
2023-01-17T06:00:34.097Z,28.30
2023-01-17T06:03:01.323Z,29.40
2023-01-17T06:05:28.339Z,33.20
2023-01-17T06:07:55.097Z,32.30
2023-01-17T06:10:23.786Z,28.90
2023-01-17T06:12:50.649Z,33.10
2023-01-17T06:15:17.988Z,31.90
2023-01-17T06:17:44.763Z,34.00
2023-01-17T06:20:12.298Z,34.10
2023-01-17T06:22:39.124Z,35.30
2023-01-17T06:25:07.821Z,38.10
2023-01-17T06:27:34.658Z,35.60
2023-01-17T06:30:01.527Z,36.80
2023-01-17T06:32:28.377Z,35.40
2023-01-17T06:34:55.396Z,35.60
2023-01-17T06:37:22.210Z,38.70
2023-01-17T06:39:49.298Z,35.70
2023-01-17T06:42:16.434Z,30.90
2023-01-17T06:44:43.416Z,44.00
2023-01-17T06:47:10.200Z,33.90
2023-01-17T06:49:36.934Z,36.90
2023-01-17T06:52:03.824Z,33.40
2023-01-17T06:54:30.629Z,33.70
2023-01-17T06:56:57.441Z,37.20
2023-01-17T06:59:24.497Z,32.90
2023-01-17T07:01:51.527Z,30.70
2023-01-17T07:04:18.439Z,36.70
2023-01-17T07:06:45.378Z,33.60
2023-01-17T07:09:12.579Z,37.50
2023-01-17T07:11:39.473Z,33.50
2023-01-17T07:14:06.258Z,37.80
2023-01-17T07:16:34.168Z,36.00
2023-01-17T07:19:01.054Z,29.90
2023-01-17T07:21:28.083Z,35.00
2023-01-17T07:23:54.967Z,32.80
2023-01-17T07:26:22.256Z,35.30
2023-01-17T07:28:49.116Z,33.40
2023-01-17T07:31:16.463Z,34.80
2023-01-17T07:33:43.529Z,41.40
2023-01-17T07:36:11.229Z,38.00
2023-01-17T07:38:38.050Z,39.10
2023-01-17T07:41:05.192Z,30.60
2023-01-17T07:43:32.230Z,37.70
2023-01-17T07:46:04.572Z,32.10
2023-01-17T07:48:37.603Z,32.90
2023-01-17T07:51:16.477Z,38.40
2023-01-17T07:54:47.728Z,38.50
2023-01-17T07:57:28.953Z,39.10
2023-01-17T08:00:35.638Z,38.10
2023-01-17T08:03:14.007Z,35.40
2023-01-17T10:15:03.257Z,68.40
2023-01-17T10:18:05.021Z,67.60
2023-01-17T10:20:51.828Z,70.60
2023-01-17T10:23:35.587Z,70.30
2023-01-17T10:26:07.995Z,64.80
2023-01-17T10:28:46.530Z,62.00
2023-01-17T10:31:22.142Z,64.00
2023-01-17T10:33:56.106Z,71.30
2023-01-17T10:36:24.938Z,59.60
2023-01-17T10:38:56.460Z,69.70
2023-01-17T10:41:28.124Z,65.40
2023-01-17T10:44:18.418Z,66.40
2023-01-17T10:46:51.126Z,75.20
2023-01-17T10:49:19.635Z,68.90
2023-01-17T10:51:59.268Z,64.10
2023-01-17T10:54:28.646Z,66.80
2023-01-17T10:56:55.210Z,64.30
2023-01-17T10:59:29.973Z,63.40
2023-01-17T11:02:00.163Z,68.10
2023-01-17T11:04:37.545Z,61.30
2023-01-17T11:07:14.520Z,68.90
2023-01-17T11:09:46.036Z,59.70
2023-01-17T11:12:28.837Z,57.90
2023-01-17T11:15:05.653Z,61.90
2023-01-17T11:17:33.495Z,60.50
2023-01-17T11:20:07.774Z,61.50
2023-01-17T11:22:37.221Z,66.20
2023-01-17T11:25:04.788Z,65.60
2023-01-17T11:27:37.597Z,63.50
2023-01-17T11:30:16.398Z,62.50
2023-01-17T11:32:56.948Z,62.60
2023-01-17T11:43:18.787Z,66.40
2023-01-17T11:45:46.811Z,65.80
2023-01-17T11:48:16.208Z,63.50
2023-01-17T11:50:59.433Z,67.50
2023-01-17T11:53:34.585Z,63.40
2023-01-17T11:56:12.604Z,62.60
2023-01-17T11:58:41.425Z,61.40
2023-01-17T12:01:27.582Z,62.60
2023-01-17T12:03:59.498Z,58.00
2023-01-17T12:06:56.769Z,57.60
2023-01-17T12:09:42.855Z,60.70
2023-01-17T12:12:40.022Z,61.50
2023-01-17T12:15:39.995Z,67.90
2023-01-17T12:18:25.839Z,70.80
2023-01-17T12:20:59.031Z,66.40
2023-01-17T12:23:51.315Z,65.40
2023-01-17T12:26:44.431Z,66.40
2023-01-17T12:29:42.338Z,65.70
2023-01-17T12:32:23.393Z,64.20
2023-01-17T12:34:52.779Z,70.30
2023-01-17T12:37:40.212Z,68.80
2023-01-17T12:40:13.196Z,67.30
2023-01-17T12:42:48.114Z,62.90
2023-01-17T12:45:28.667Z,63.00
2023-01-17T12:47:59.944Z,66.00
2023-01-17T12:50:41.619Z,62.70
2023-01-17T12:53:35.403Z,69.30
2023-01-17T12:56:08.526Z,62.50
2023-01-17T12:58:39.858Z,61.70
2023-01-17T13:01:18.935Z,60.80
2023-01-17T13:04:00.472Z,66.60
2023-01-17T13:06:51.063Z,60.60
2023-01-17T13:09:19.604Z,68.90
2023-01-17T13:11:58.025Z,58.80
2023-01-17T13:14:24.905Z,61.20
2023-01-17T13:16:59.109Z,66.70
2023-01-17T13:19:48.082Z,67.90
2023-01-17T13:22:19.447Z,67.80
2023-01-17T13:24:50.776Z,61.30
2023-01-17T13:27:43.838Z,70.00
2023-01-17T13:30:15.491Z,66.60
2023-01-17T13:32:51.432Z,72.80
2023-01-17T13:35:58.332Z,70.40
2023-01-17T13:38:25.489Z,65.00
2023-01-17T13:41:03.831Z,69.00
2023-01-17T13:43:34.269Z,66.00
2023-01-17T13:46:03.380Z,64.70
2023-01-17T13:48:41.157Z,69.40
2023-01-17T13:51:08.892Z,72.60
2023-01-17T13:53:35.627Z,70.20
2023-01-17T13:56:15.993Z,67.20
2023-01-17T13:58:54.607Z,72.90
2023-01-17T14:01:24.618Z,73.10
2023-01-17T14:03:54.535Z,79.10
2023-01-17T14:06:35.406Z,68.50
2023-01-17T16:15:13.492Z,103.20
2023-01-17T16:17:44.987Z,108.70
2023-01-17T16:20:18.699Z,104.80
2023-01-17T16:22:46.403Z,110.90
2023-01-17T16:25:16.314Z,106.00
2023-01-17T16:27:44.434Z,101.90
2023-01-17T16:30:16.198Z,99.60
2023-01-17T16:32:46.342Z,95.20
2023-01-17T16:35:23.951Z,90.90
2023-01-17T16:37:55.041Z,87.80
2023-01-17T16:40:23.501Z,93.00
2023-01-17T16:42:50.301Z,90.80
2023-01-17T16:45:17.372Z,88.00
2023-01-17T16:47:47.382Z,97.40
2023-01-17T16:50:15.671Z,92.90
2023-01-17T16:52:42.222Z,88.10
2023-01-17T16:55:11.773Z,82.30
2023-01-17T16:57:38.651Z,90.70
2023-01-17T17:00:06.109Z,90.50
2023-01-17T17:02:33.217Z,94.00
2023-01-17T17:04:59.996Z,89.70
2023-01-17T17:07:26.642Z,90.90
2023-01-17T17:09:53.289Z,83.80
2023-01-17T17:12:20.431Z,88.20
2023-01-17T17:14:47.478Z,92.10
2023-01-17T17:17:14.858Z,87.80
2023-01-17T17:19:42.290Z,84.50
2023-01-17T17:22:09.788Z,82.10
2023-01-17T17:24:36.894Z,78.10
2023-01-17T17:27:04.043Z,87.40
2023-01-17T17:29:30.906Z,89.90
2023-01-17T17:31:58.648Z,81.30
2023-01-17T17:34:27.162Z,82.00
2023-01-17T17:36:53.876Z,82.50
2023-01-17T17:39:22.357Z,84.60
2023-01-17T17:41:49.097Z,78.60
2023-01-17T17:44:16.731Z,94.90
2023-01-17T17:46:44.182Z,79.80
2023-01-17T17:49:11.064Z,76.30
2023-01-17T17:51:38.703Z,76.80
2023-01-17T17:54:10.590Z,77.40
2023-01-17T17:56:38.341Z,76.70
2023-01-17T17:59:06.631Z,79.80
2023-01-17T18:01:37.577Z,81.00
2023-01-17T18:06:34.632Z,75.20
2023-01-17T18:09:02.490Z,67.40
2023-01-17T18:11:29.666Z,70.00
2023-01-17T18:13:58.672Z,63.60
2023-01-17T18:16:28.024Z,63.80
2023-01-17T18:18:55.929Z,66.60
2023-01-17T18:21:24.580Z,64.60
2023-01-17T18:23:54.242Z,68.20
2023-01-17T18:26:31.405Z,66.70
2023-01-17T18:28:58.708Z,65.20
2023-01-17T18:31:27.103Z,66.00
2023-01-17T18:33:55.000Z,65.10
2023-01-17T18:36:23.074Z,69.30
2023-01-17T18:38:49.822Z,66.30
2023-01-17T18:41:18.610Z,62.00
2023-01-17T18:43:45.952Z,67.00
2023-01-17T18:46:14.520Z,62.00
2023-01-17T18:48:41.689Z,61.80
2023-01-17T18:51:10.679Z,63.90
2023-01-17T18:53:38.167Z,59.40
2023-01-17T18:56:07.165Z,63.20
2023-01-17T18:58:38.919Z,67.70
2023-01-17T19:01:28.927Z,64.80
2023-01-17T19:03:59.671Z,66.60
2023-01-17T19:06:29.670Z,70.80
2023-01-17T19:08:59.965Z,64.00
